createdAt,value
2022-10-28T00:00:17.260Z,14.4
2022-10-28T00:01:20.845Z,14.4
2022-10-28T00:02:24.264Z,14.4
2022-10-28T00:03:26.888Z,14.4
2022-10-28T00:05:31.955Z,14.4
2022-10-28T00:06:35.282Z,14.4
2022-10-28T00:07:38.443Z,14.4
2022-10-28T00:08:41.630Z,14.4
2022-10-28T00:09:44.789Z,14.4
2022-10-28T00:10:47.857Z,14.4
2022-10-28T00:11:50.927Z,14.4
2022-10-28T00:12:54.095Z,14.3
2022-10-28T00:13:57.138Z,14.4
2022-10-28T00:15:00.350Z,14.4
2022-10-28T00:16:03.691Z,14.4
2022-10-28T00:17:06.963Z,14.3
2022-10-28T00:18:09.945Z,14.3
2022-10-28T00:19:11.982Z,14.3
2022-10-28T00:20:14.815Z,14.4
2022-10-28T00:21:18.302Z,14.4
2022-10-28T00:22:21.064Z,14.4
2022-10-28T00:23:24.513Z,14.4
2022-10-28T00:24:27.730Z,14.4
2022-10-28T00:25:29.967Z,14.3
2022-10-28T00:26:32.516Z,14.4
2022-10-28T00:27:35.313Z,14.4
2022-10-28T00:28:38.469Z,14.4
2022-10-28T00:29:41.180Z,14.4
2022-10-28T00:30:44.103Z,14.4
2022-10-28T00:31:47.364Z,14.4
2022-10-28T00:32:50.265Z,14.4
2022-10-28T00:33:53.889Z,14.4
2022-10-28T00:34:57.599Z,14.4
2022-10-28T00:36:05.135Z,14.4
2022-10-28T00:37:08.779Z,14.3
2022-10-28T00:38:11.898Z,14.4
2022-10-28T00:39:15.038Z,14.4
2022-10-28T00:40:18.586Z,14.4
2022-10-28T00:41:21.456Z,14.4
2022-10-28T00:42:24.627Z,14.4
2022-10-28T00:43:27.250Z,14.3
2022-10-28T00:44:30.100Z,14.3
2022-10-28T00:45:33.440Z,14.3
2022-10-28T00:46:36.527Z,14.4
2022-10-28T00:47:39.513Z,14.4
2022-10-28T00:48:41.199Z,14.3
2022-10-28T00:49:44.196Z,14.4
2022-10-28T00:50:47.636Z,14.3
2022-10-28T00:51:51.003Z,14.3
2022-10-28T00:52:54.361Z,14.3
2022-10-28T00:53:57.750Z,14.3
2022-10-28T00:55:01.462Z,14.4
2022-10-28T00:56:04.936Z,14.4
2022-10-28T00:57:07.835Z,14.4
2022-10-28T00:58:11.004Z,14.4
2022-10-28T00:59:14.164Z,14.3
2022-10-28T01:00:16.962Z,14.3
2022-10-28T01:01:20.542Z,14.3
2022-10-28T01:02:23.845Z,14.3
2022-10-28T01:03:26.174Z,14.3
2022-10-28T01:04:28.987Z,14.3
2022-10-28T01:05:31.975Z,14.3
2022-10-28T01:06:35.698Z,14.3
2022-10-28T01:07:38.885Z,14.3
2022-10-28T01:08:42.031Z,14.3
2022-10-28T01:09:45.809Z,14.3
2022-10-28T01:10:49.543Z,14.3
2022-10-28T01:11:53.391Z,14.3
2022-10-28T01:12:57.670Z,14.3
2022-10-28T01:14:00.462Z,14.3
2022-10-28T01:15:03.337Z,14.3
2022-10-28T01:16:05.848Z,14.3
2022-10-28T01:17:09.286Z,14.3
2022-10-28T01:18:12.544Z,14.2
2022-10-28T01:19:14.782Z,14.2
2022-10-28T01:20:17.303Z,14.2
2022-10-28T01:21:20.085Z,14.2
2022-10-28T01:22:23.608Z,14.2
2022-10-28T01:23:26.221Z,14.2
2022-10-28T01:24:29.377Z,14.2
2022-10-28T01:25:32.210Z,14.2
2022-10-28T01:26:35.646Z,14.2
2022-10-28T01:27:39.428Z,14.2
2022-10-28T01:28:42.852Z,14.2
2022-10-28T01:29:45.285Z,14.2
2022-10-28T01:30:48.522Z,14.2
2022-10-28T01:31:51.314Z,14.2
2022-10-28T01:32:56.248Z,14.2
2022-10-28T01:33:59.237Z,14.2
2022-10-28T01:35:01.757Z,14.2
2022-10-28T01:36:03.996Z,14.2
2022-10-28T01:37:07.382Z,14.2
2022-10-28T01:38:10.535Z,14.2
2022-10-28T01:39:14.259Z,14.2
2022-10-28T01:40:17.656Z,14.2
2022-10-28T01:41:20.847Z,14.2
2022-10-28T01:42:24.039Z,14.2
2022-10-28T01:43:27.280Z,14.2
2022-10-28T01:44:29.998Z,14.1
2022-10-28T01:45:33.171Z,14.2
2022-10-28T01:46:36.513Z,14.2
2022-10-28T01:47:39.861Z,14.2
2022-10-28T01:48:42.965Z,14.1
2022-10-28T01:49:45.740Z,14.2
2022-10-28T01:50:49.430Z,14.2
2022-10-28T01:51:52.492Z,14.1
2022-10-28T01:52:57.091Z,14.1
2022-10-28T01:54:00.516Z,14.2
2022-10-28T01:55:03.419Z,14.2
2022-10-28T01:56:06.420Z,14.1
2022-10-28T01:57:09.865Z,14.2
2022-10-28T01:58:12.923Z,14.1
2022-10-28T01:59:16.366Z,14.1
2022-10-28T02:00:19.424Z,14.1
2022-10-28T02:01:23.608Z,14.1
2022-10-28T02:02:26.181Z,14.1
2022-10-28T02:03:29.253Z,14.1
2022-10-28T02:04:32.520Z,14.1
2022-10-28T02:05:35.747Z,14.1
2022-10-28T02:06:39.189Z,14.1
2022-10-28T02:07:42.256Z,14.1
2022-10-28T02:08:45.614Z,14.1
2022-10-28T02:09:48.397Z,14.2
2022-10-28T02:10:51.019Z,14.1
2022-10-28T02:11:53.464Z,14.2
2022-10-28T02:12:57.082Z,14.1
2022-10-28T02:14:00.105Z,14.1
2022-10-28T02:15:04.576Z,14.1
2022-10-28T02:16:08.035Z,14.1
2022-10-28T02:17:10.915Z,14.1
2022-10-28T02:18:13.435Z,14.1
2022-10-28T02:19:16.421Z,14.1
2022-10-28T02:20:19.495Z,14
2022-10-28T02:21:22.872Z,14
2022-10-28T02:22:26.114Z,14
2022-10-28T02:23:29.111Z,14
2022-10-28T02:24:31.265Z,14
2022-10-28T02:25:34.670Z,14
2022-10-28T02:26:37.758Z,14.1
2022-10-28T02:27:40.559Z,14.1
2022-10-28T02:28:43.111Z,14.1
2022-10-28T02:29:46.289Z,14.1
2022-10-28T02:30:49.246Z,14.1
2022-10-28T02:31:52.682Z,14.1
2022-10-28T02:32:57.687Z,14.1
2022-10-28T02:34:01.107Z,14.1
2022-10-28T02:35:04.530Z,14.2
2022-10-28T02:36:07.605Z,14.1
2022-10-28T02:37:10.757Z,14.2
2022-10-28T02:38:14.210Z,14.2
2022-10-28T02:39:16.522Z,14.2
2022-10-28T02:40:19.231Z,14.2
2022-10-28T02:41:22.032Z,14.2
2022-10-28T02:42:25.615Z,14.2
2022-10-28T02:43:28.916Z,14.2
2022-10-28T02:44:31.546Z,14.2
2022-10-28T02:45:35.443Z,14.2
2022-10-28T02:46:39.121Z,14.2
2022-10-28T02:47:42.272Z,14.2
2022-10-28T02:48:45.369Z,14.3
2022-10-28T02:49:48.090Z,14.2
2022-10-28T02:50:50.808Z,14.2
2022-10-28T02:51:53.954Z,14.2
2022-10-28T02:52:57.774Z,14.2
2022-10-28T02:54:00.452Z,14.2
2022-10-28T02:55:03.521Z,14.2
2022-10-28T02:56:06.528Z,14.2
2022-10-28T02:57:09.123Z,14.2
2022-10-28T02:58:12.494Z,14.2
2022-10-28T02:59:15.470Z,14.2
2022-10-28T03:00:17.944Z,14.1
2022-10-28T03:01:22.572Z,14.1
2022-10-28T03:02:26.361Z,14.1
2022-10-28T03:03:28.880Z,14.1
2022-10-28T03:04:32.407Z,14.1
2022-10-28T03:05:35.005Z,14.1
2022-10-28T03:06:38.450Z,14
2022-10-28T03:07:41.510Z,14
2022-10-28T03:08:44.020Z,14
2022-10-28T03:09:46.731Z,14.1
2022-10-28T03:10:49.728Z,14.1
2022-10-28T03:11:52.893Z,14
2022-10-28T03:12:56.085Z,14
2022-10-28T03:13:58.887Z,14
2022-10-28T03:15:01.898Z,14
2022-10-28T03:16:04.708Z,14
2022-10-28T03:17:07.791Z,14
2022-10-28T03:18:11.848Z,14
2022-10-28T03:19:14.807Z,13.9
2022-10-28T03:20:17.875Z,13.9
2022-10-28T03:21:20.942Z,13.9
2022-10-28T03:22:23.457Z,13.9
2022-10-28T03:23:26.261Z,13.9
2022-10-28T03:24:29.958Z,13.9
2022-10-28T03:25:32.559Z,13.9
2022-10-28T03:26:35.645Z,13.9
2022-10-28T03:27:37.892Z,13.9
2022-10-28T03:28:41.160Z,13.9
2022-10-28T03:29:47.950Z,13.9
2022-10-28T03:30:50.962Z,13.9
2022-10-28T03:31:53.791Z,13.9
2022-10-28T03:32:58.377Z,13.9
2022-10-28T03:34:01.357Z,13.9
2022-10-28T03:35:04.552Z,13.9
2022-10-28T03:36:07.619Z,13.9
2022-10-28T03:37:10.849Z,13.9
2022-10-28T03:38:13.646Z,13.9
2022-10-28T03:39:16.511Z,13.9
2022-10-28T03:40:19.309Z,13.9
2022-10-28T03:41:22.738Z,13.9
2022-10-28T03:42:26.187Z,13.9
2022-10-28T03:43:29.329Z,13.9
2022-10-28T03:44:33.050Z,13.9
2022-10-28T03:45:36.806Z,13.9
2022-10-28T03:46:39.788Z,13.9
2022-10-28T03:47:43.164Z,13.9
2022-10-28T03:48:47.057Z,13.9
2022-10-28T03:49:50.870Z,13.8
2022-10-28T03:50:53.480Z,13.8
2022-10-28T03:51:56.912Z,13.8
2022-10-28T03:53:00.085Z,13.8
2022-10-28T03:54:02.961Z,13.8
2022-10-28T03:55:05.952Z,13.8
2022-10-28T03:56:09.020Z,13.8
2022-10-28T03:57:11.718Z,13.8
2022-10-28T03:58:14.796Z,13.8
2022-10-28T03:59:21.771Z,13.7
2022-10-28T04:00:24.843Z,13.7
2022-10-28T04:01:28.846Z,13.7
2022-10-28T04:02:32.773Z,13.7
2022-10-28T04:03:36.027Z,13.7
2022-10-28T04:04:38.932Z,13.6
2022-10-28T04:05:42.394Z,13.6
2022-10-28T04:06:45.511Z,13.6
2022-10-28T04:07:48.849Z,13.6
2022-10-28T04:08:51.915Z,13.6
2022-10-28T04:09:54.977Z,13.6
2022-10-28T04:10:58.610Z,13.6
2022-10-28T04:12:02.739Z,13.6
2022-10-28T04:13:05.930Z,13.6
2022-10-28T04:14:09.190Z,13.6
2022-10-28T04:15:12.274Z,13.5
2022-10-28T04:16:15.139Z,13.5
2022-10-28T04:17:18.354Z,13.5
2022-10-28T04:18:21.164Z,13.4
2022-10-28T04:19:24.573Z,13.4
2022-10-28T04:20:27.970Z,13.4
2022-10-28T04:21:31.142Z,13.4
2022-10-28T04:22:34.241Z,13.4
2022-10-28T04:23:37.024Z,13.4
2022-10-28T04:24:40.007Z,13.4
2022-10-28T04:25:42.709Z,13.4
2022-10-28T04:26:46.211Z,13.4
2022-10-28T04:27:49.089Z,13.3
2022-10-28T04:28:51.967Z,13.4
2022-10-28T04:29:55.041Z,13.3
2022-10-28T04:30:58.057Z,13.3
2022-10-28T04:32:01.176Z,13.3
2022-10-28T04:33:04.294Z,13.3
2022-10-28T04:34:06.622Z,13.3
2022-10-28T04:35:10.103Z,13.3
2022-10-28T04:36:13.458Z,13.3
2022-10-28T04:37:22.405Z,13.3
2022-10-28T04:39:27.522Z,13.3
2022-10-28T04:40:30.605Z,13.2
2022-10-28T04:41:33.319Z,13.3
2022-10-28T04:42:36.661Z,13.3
2022-10-28T04:43:39.467Z,13.2
2022-10-28T04:44:42.457Z,13.3
2022-10-28T04:45:45.949Z,13.2
2022-10-28T04:46:48.736Z,13.2
2022-10-28T04:47:51.900Z,13.2
2022-10-28T04:48:54.633Z,13.2
2022-10-28T04:49:57.440Z,13.2
2022-10-28T04:51:00.710Z,13.2
2022-10-28T04:52:04.127Z,13.2
2022-10-28T04:53:08.280Z,13.2
2022-10-28T04:54:11.447Z,13.2
2022-10-28T04:55:14.159Z,13.2
2022-10-28T04:56:16.120Z,13.2
2022-10-28T04:57:19.619Z,13.1
2022-10-28T04:58:22.212Z,13.2
2022-10-28T04:59:25.294Z,13.2
2022-10-28T05:00:27.884Z,13.2
2022-10-28T05:01:30.852Z,13.1
2022-10-28T05:02:33.490Z,13.2
2022-10-28T05:03:36.285Z,13.1
2022-10-28T05:04:39.756Z,13.2
2022-10-28T05:05:42.721Z,13.2
2022-10-28T05:06:46.117Z,13.2
2022-10-28T05:07:49.278Z,13.2
2022-10-28T05:08:52.732Z,13.2
2022-10-28T05:09:56.087Z,13.2
2022-10-28T05:10:59.564Z,13.2
2022-10-28T05:12:02.985Z,13.2
2022-10-28T05:13:05.425Z,13.2
2022-10-28T05:14:08.500Z,13.2
2022-10-28T05:15:11.393Z,13.2
2022-10-28T05:16:14.262Z,13.2
2022-10-28T05:17:16.977Z,13.3
2022-10-28T05:18:20.145Z,13.2
2022-10-28T05:19:23.357Z,13.2
2022-10-28T05:20:26.438Z,13.3
2022-10-28T05:21:30.180Z,13.3
2022-10-28T05:22:33.354Z,13.3
2022-10-28T05:23:36.769Z,13.3
2022-10-28T05:24:40.220Z,13.3
2022-10-28T05:25:42.997Z,13.3
2022-10-28T05:26:46.065Z,13.3
2022-10-28T05:27:48.389Z,13.3
2022-10-28T05:28:51.664Z,13.3
2022-10-28T05:29:54.514Z,13.3
2022-10-28T05:30:57.300Z,13.3
2022-10-28T05:32:00.841Z,13.3
2022-10-28T05:33:04.398Z,13.2
2022-10-28T05:34:07.013Z,13.3
2022-10-28T05:35:09.841Z,13.3
2022-10-28T05:36:13.234Z,13.3
2022-10-28T05:37:16.237Z,13.3
2022-10-28T05:38:19.739Z,13.3
2022-10-28T05:39:23.205Z,13.3
2022-10-28T05:40:27.024Z,13.3
2022-10-28T05:41:30.083Z,13.3
2022-10-28T05:42:32.674Z,13.3
2022-10-28T05:43:34.836Z,13.4
2022-10-28T05:44:37.624Z,13.4
2022-10-28T05:45:40.206Z,13.4
2022-10-28T05:46:43.478Z,13.4
2022-10-28T05:47:46.346Z,13.4
2022-10-28T05:48:49.208Z,13.4
2022-10-28T05:49:52.018Z,13.4
2022-10-28T05:50:54.729Z,13.4
2022-10-28T05:51:58.329Z,13.4
2022-10-28T05:53:01.983Z,13.4
2022-10-28T05:54:04.790Z,13.4
2022-10-28T05:55:08.171Z,13.4
2022-10-28T05:56:11.910Z,13.4
2022-10-28T05:57:14.704Z,13.4
2022-10-28T05:58:17.422Z,13.4
2022-10-28T05:59:19.938Z,13.4
2022-10-28T06:00:23.002Z,13.4
2022-10-28T06:01:25.906Z,13.4
2022-10-28T06:02:28.560Z,13.4
2022-10-28T06:03:33.606Z,13.4
2022-10-28T06:04:37.062Z,13.4
2022-10-28T06:05:40.710Z,13.4
2022-10-28T06:06:43.782Z,13.4
2022-10-28T06:07:46.933Z,13.4
2022-10-28T06:08:50.143Z,13.4
2022-10-28T06:09:53.604Z,13.4
2022-10-28T06:10:55.538Z,13.5
2022-10-28T06:11:59.277Z,13.4
2022-10-28T06:13:02.021Z,13.5
2022-10-28T06:14:04.532Z,13.5
2022-10-28T06:15:08.155Z,13.5
2022-10-28T06:16:11.220Z,13.5
2022-10-28T06:17:14.193Z,13.5
2022-10-28T06:18:20.551Z,13.5
2022-10-28T06:19:23.991Z,13.5
2022-10-28T06:20:27.394Z,13.5
2022-10-28T06:21:30.086Z,13.5
2022-10-28T06:22:33.425Z,13.6
2022-10-28T06:23:36.901Z,13.6
2022-10-28T06:24:40.001Z,13.6
2022-10-28T06:25:43.501Z,13.6
2022-10-28T06:26:46.765Z,13.6
2022-10-28T06:27:52.608Z,13.6
2022-10-28T06:28:56.327Z,13.6
2022-10-28T06:29:59.895Z,13.6
2022-10-28T06:31:03.281Z,13.7
2022-10-28T06:32:05.241Z,13.6
2022-10-28T06:33:07.758Z,13.7
2022-10-28T06:34:10.906Z,13.7
2022-10-28T06:35:13.618Z,13.7
2022-10-28T06:36:16.606Z,13.7
2022-10-28T06:37:19.950Z,13.7
2022-10-28T06:38:23.671Z,13.7
2022-10-28T06:39:27.321Z,13.7
2022-10-28T06:40:30.179Z,13.7
2022-10-28T06:41:33.494Z,13.7
2022-10-28T06:42:36.888Z,13.7
2022-10-28T06:43:40.904Z,13.7
2022-10-28T06:44:44.142Z,13.8
2022-10-28T06:45:47.870Z,13.8
2022-10-28T06:46:52.630Z,13.7
2022-10-28T06:47:55.793Z,13.8
2022-10-28T06:48:58.305Z,13.8
2022-10-28T06:50:01.373Z,13.8
2022-10-28T06:51:04.756Z,13.8
2022-10-28T06:52:07.537Z,13.8
2022-10-28T06:53:10.991Z,13.9
2022-10-28T06:54:13.508Z,13.9
2022-10-28T06:55:16.692Z,13.9
2022-10-28T06:56:20.706Z,13.9
2022-10-28T06:57:31.015Z,13.9
2022-10-28T06:58:34.030Z,13.9
2022-10-28T06:59:37.215Z,14
2022-10-28T07:00:40.219Z,14
2022-10-28T07:01:43.660Z,14
2022-10-28T07:02:47.459Z,14
2022-10-28T07:03:50.909Z,14.1
2022-10-28T07:04:53.730Z,14.1
2022-10-28T07:05:56.444Z,14.1
2022-10-28T07:06:59.484Z,14.2
2022-10-28T07:08:02.611Z,14.2
2022-10-28T07:09:05.430Z,14.2
2022-10-28T07:10:08.502Z,14.3
2022-10-28T07:11:11.315Z,14.3
2022-10-28T07:12:14.427Z,14.3
2022-10-28T07:13:17.883Z,14.3
2022-10-28T07:14:20.806Z,14.4
2022-10-28T07:15:23.979Z,14.4
2022-10-28T07:16:27.629Z,14.4
2022-10-28T07:17:30.801Z,14.5
2022-10-28T07:18:34.181Z,14.6
2022-10-28T07:19:37.596Z,14.6
2022-10-28T07:20:40.674Z,14.7
2022-10-28T07:21:43.193Z,14.8
2022-10-28T07:22:46.601Z,14.8
2022-10-28T07:23:49.892Z,14.9
2022-10-28T07:24:52.215Z,15
2022-10-28T07:25:55.129Z,15
2022-10-28T07:26:59.593Z,15.1
2022-10-28T07:28:03.343Z,15.1
2022-10-28T07:29:06.450Z,15.2
2022-10-28T07:30:09.566Z,15.2
2022-10-28T07:31:12.827Z,15.2
2022-10-28T07:32:15.383Z,15.2
2022-10-28T07:33:18.266Z,15.2
2022-10-28T07:34:28.657Z,15.2
2022-10-28T07:35:31.685Z,15.3
2022-10-28T07:36:34.551Z,15.3
2022-10-28T07:37:36.996Z,15.3
2022-10-28T07:38:39.809Z,15.3
2022-10-28T07:39:42.696Z,15.2
2022-10-28T07:40:45.776Z,15.2
2022-10-28T07:41:48.483Z,15.2
2022-10-28T07:42:51.912Z,15.2
2022-10-28T07:43:55.680Z,15.2
2022-10-28T07:44:59.364Z,15.2
2022-10-28T07:46:02.677Z,15.2
2022-10-28T07:47:06.178Z,15.2
2022-10-28T07:48:08.412Z,15.1
2022-10-28T07:49:11.400Z,15.1
2022-10-28T07:50:14.686Z,15.1
2022-10-28T07:51:17.494Z,15.1
2022-10-28T07:52:21.110Z,15.1
2022-10-28T07:53:30.451Z,15.1
2022-10-28T07:54:33.429Z,15
2022-10-28T07:55:36.229Z,15.1
2022-10-28T07:56:39.939Z,15.1
2022-10-28T07:57:43.080Z,15
2022-10-28T07:58:46.238Z,15
2022-10-28T07:59:49.128Z,15.1
2022-10-28T08:00:52.881Z,15
2022-10-28T08:01:56.754Z,15
2022-10-28T08:03:00.870Z,15
2022-10-28T08:04:03.307Z,15
2022-10-28T08:05:06.029Z,15
2022-10-28T08:06:09.362Z,15
2022-10-28T08:07:11.856Z,15
2022-10-28T08:08:14.559Z,15.1
2022-10-28T08:09:17.372Z,15.2
2022-10-28T08:10:20.086Z,15.3
2022-10-28T08:11:22.972Z,15.3
2022-10-28T08:12:25.409Z,15.4
2022-10-28T08:13:28.210Z,15.5
2022-10-28T08:14:30.747Z,15.5
2022-10-28T08:15:34.572Z,15.6
2022-10-28T08:16:37.581Z,15.6
2022-10-28T08:17:40.697Z,15.6
2022-10-28T08:18:44.246Z,15.7
2022-10-28T08:19:47.597Z,15.8
2022-10-28T08:20:51.092Z,15.8
2022-10-28T08:21:54.898Z,15.9
2022-10-28T08:23:01.805Z,15.9
2022-10-28T08:24:10.648Z,15.9
2022-10-28T08:25:13.459Z,15.9
2022-10-28T08:26:16.907Z,16
2022-10-28T08:27:19.429Z,16
2022-10-28T08:28:22.590Z,16.1
2022-10-28T08:29:31.194Z,16.1
2022-10-28T08:31:10.491Z,16.2
2022-10-28T08:32:13.866Z,16.3
2022-10-28T08:33:17.584Z,16.5
2022-10-28T08:35:23.443Z,16.6
2022-10-28T08:36:26.323Z,16.8
2022-10-28T08:37:29.978Z,16.9
2022-10-28T08:38:33.565Z,17
2022-10-28T08:39:36.602Z,17.1
2022-10-28T08:40:39.982Z,17.2
2022-10-28T08:41:42.883Z,17.2
2022-10-28T08:42:46.265Z,17.3
2022-10-28T08:43:59.662Z,17.4
2022-10-28T08:45:03.905Z,17.4
2022-10-28T08:46:07.063Z,17.5
2022-10-28T08:47:10.413Z,17.6
2022-10-28T08:48:12.898Z,17.6
2022-10-28T08:49:15.956Z,17.7
2022-10-28T08:50:19.402Z,17.7
2022-10-28T08:51:22.519Z,17.8
2022-10-28T08:52:26.328Z,17.9
2022-10-28T08:53:29.116Z,17.9
2022-10-28T08:54:32.109Z,18
2022-10-28T08:55:35.368Z,18
2022-10-28T08:56:38.361Z,18.1
2022-10-28T08:57:41.534Z,18.2
2022-10-28T08:58:44.599Z,18.3
2022-10-28T08:59:47.422Z,18.3
2022-10-28T09:00:50.373Z,18.4
2022-10-28T09:02:59.580Z,18.6
2022-10-28T09:04:02.777Z,18.7
2022-10-28T09:05:06.075Z,18.7
2022-10-28T09:06:09.808Z,18.8
2022-10-28T09:07:13.148Z,18.9
2022-10-28T09:08:16.128Z,18.9
2022-10-28T09:09:18.839Z,18.8
2022-10-28T09:10:22.500Z,18.8
2022-10-28T09:11:29.057Z,18.9
2022-10-28T09:12:32.155Z,18.9
2022-10-28T09:13:35.508Z,19
2022-10-28T09:14:38.130Z,19
2022-10-28T09:16:44.197Z,19.2
2022-10-28T09:17:47.894Z,19.3
2022-10-28T09:18:51.249Z,19.4
2022-10-28T09:19:54.363Z,19.6
2022-10-28T09:20:57.490Z,19.8
2022-10-28T09:22:01.289Z,19.8
2022-10-28T09:23:04.734Z,19.9
2022-10-28T09:24:07.338Z,20
2022-10-28T09:25:10.691Z,20.1
2022-10-28T09:26:13.690Z,20.2
2022-10-28T09:27:16.785Z,20.2
2022-10-28T09:28:19.298Z,20.2
2022-10-28T09:29:22.103Z,20.3
2022-10-28T09:30:24.995Z,20.3
2022-10-28T09:31:28.072Z,20.4
2022-10-28T09:32:31.800Z,20.5
2022-10-28T09:33:35.013Z,20.5
2022-10-28T09:34:38.197Z,20.4
2022-10-28T09:35:41.155Z,20.5
2022-10-28T09:36:45.264Z,20.6
2022-10-28T09:37:49.344Z,20.6
2022-10-28T09:38:52.425Z,20.7
2022-10-28T09:39:55.530Z,20.9
2022-10-28T09:40:59.264Z,21
2022-10-28T09:42:02.442Z,21.1
2022-10-28T09:43:06.085Z,21.3
2022-10-28T09:44:08.879Z,21.4
2022-10-28T09:45:11.958Z,21.6
2022-10-28T09:46:14.745Z,21.5
2022-10-28T09:47:18.267Z,21.5
2022-10-28T09:48:21.066Z,21.5
2022-10-28T09:49:24.280Z,21.6
2022-10-28T09:50:26.790Z,21.6
2022-10-28T09:51:30.186Z,21.6
2022-10-28T09:52:34.024Z,21.7
2022-10-28T09:53:37.707Z,21.7
2022-10-28T09:54:40.749Z,21.8
2022-10-28T09:55:44.091Z,21.8
2022-10-28T09:56:47.313Z,22
2022-10-28T09:57:50.400Z,22.2
2022-10-28T09:58:53.571Z,22.4
2022-10-28T09:59:56.559Z,22.5
2022-10-28T10:00:59.647Z,22.5
2022-10-28T10:02:03.841Z,22.7
2022-10-28T10:03:06.704Z,22.9
2022-10-28T10:04:09.701Z,22.9
2022-10-28T10:05:18.720Z,22.8
2022-10-28T10:06:22.068Z,22.8
2022-10-28T10:07:24.845Z,22.8
2022-10-28T10:08:28.496Z,22.6
2022-10-28T10:09:31.965Z,22.6
2022-10-28T10:10:35.050Z,22.7
2022-10-28T10:11:37.917Z,22.6
2022-10-28T10:12:40.749Z,22.7
2022-10-28T10:13:43.821Z,22.9
2022-10-28T10:14:47.588Z,23.1
2022-10-28T10:15:51.497Z,23.2
2022-10-28T10:16:54.769Z,23.3
2022-10-28T10:17:57.267Z,23.5
2022-10-28T10:19:01.254Z,23.4
2022-10-28T10:20:04.251Z,23.3
2022-10-28T10:21:07.823Z,23.2
2022-10-28T10:22:10.974Z,23.2
2022-10-28T10:23:13.843Z,23.2
2022-10-28T10:24:17.240Z,23.3
2022-10-28T10:25:21.001Z,23.4
2022-10-28T10:26:24.179Z,23.5
2022-10-28T10:27:26.805Z,23.5
2022-10-28T10:28:29.670Z,23.6
2022-10-28T10:29:32.478Z,23.6
2022-10-28T10:30:35.350Z,23.5
2022-10-28T10:31:38.209Z,23.5
2022-10-28T10:32:41.270Z,23.5
2022-10-28T10:33:44.629Z,23.4
2022-10-28T10:34:47.520Z,23.5
2022-10-28T10:35:50.518Z,23.6
2022-10-28T10:36:54.011Z,23.7
2022-10-28T10:37:58.732Z,23.8
2022-10-28T10:39:02.266Z,23.9
2022-10-28T10:40:05.619Z,24.1
2022-10-28T10:41:09.164Z,24.3
2022-10-28T10:42:11.992Z,24.4
2022-10-28T10:43:16.174Z,24.6
2022-10-28T10:44:18.690Z,24.8
2022-10-28T10:45:22.339Z,24.9
2022-10-28T10:46:25.689Z,24.9
2022-10-28T10:47:28.508Z,24.8
2022-10-28T10:48:31.498Z,24.8
2022-10-28T10:49:34.416Z,24.9
2022-10-28T10:50:37.360Z,24.9
2022-10-28T10:51:42.316Z,25
2022-10-28T10:52:45.500Z,25.2
2022-10-28T10:53:48.107Z,25
2022-10-28T10:54:51.859Z,25
2022-10-28T10:55:55.162Z,25
2022-10-28T10:56:59.030Z,25.1
2022-10-28T10:58:02.491Z,25.1
2022-10-28T10:59:05.468Z,25.3
2022-10-28T11:00:08.903Z,25.1
2022-10-28T11:01:12.978Z,25.1
2022-10-28T11:02:17.315Z,25.3
2022-10-28T11:03:20.279Z,25.3
2022-10-28T11:04:23.373Z,25.4
2022-10-28T11:05:39.759Z,25.5
2022-10-28T11:06:42.830Z,25.4
2022-10-28T11:07:46.300Z,25.5
2022-10-28T11:08:50.073Z,25.5
2022-10-28T11:09:53.495Z,25.5
2022-10-28T11:10:56.963Z,25.5
2022-10-28T11:12:00.752Z,25.5
2022-10-28T11:13:03.927Z,25.6
2022-10-28T11:14:06.996Z,25.6
2022-10-28T11:15:09.818Z,25.7
2022-10-28T11:16:12.613Z,25.8
2022-10-28T11:17:15.604Z,25.9
2022-10-28T11:18:18.971Z,25.9
2022-10-28T11:19:21.713Z,25.7
2022-10-28T11:20:25.154Z,25.7
2022-10-28T11:21:27.601Z,25.6
2022-10-28T11:22:30.822Z,25.6
2022-10-28T11:23:33.954Z,25.7
2022-10-28T11:24:37.043Z,25.8
2022-10-28T11:25:40.159Z,25.8
2022-10-28T11:26:43.572Z,26
2022-10-28T11:28:04.777Z,26
2022-10-28T11:29:08.658Z,26
2022-10-28T11:30:12.104Z,26.1
2022-10-28T11:31:14.836Z,26.1
2022-10-28T11:32:17.907Z,26
2022-10-28T11:33:38.916Z,25.8
2022-10-28T11:34:42.164Z,25.9
2022-10-28T11:35:45.583Z,25.9
2022-10-28T11:36:48.719Z,25.9
2022-10-28T11:37:52.040Z,26
2022-10-28T11:38:54.750Z,26
2022-10-28T11:39:58.217Z,26
2022-10-28T11:41:01.339Z,26
2022-10-28T11:42:04.718Z,25.9
2022-10-28T11:43:08.210Z,25.8
2022-10-28T11:44:11.317Z,25.5
2022-10-28T11:45:14.032Z,25.5
2022-10-28T11:46:16.921Z,25.6
2022-10-28T11:47:20.187Z,25.7
2022-10-28T11:48:23.377Z,25.8
2022-10-28T11:49:26.276Z,25.7
2022-10-28T11:50:29.116Z,25.6
2022-10-28T11:51:31.638Z,25.7
2022-10-28T11:52:35.385Z,25.8
2022-10-28T11:53:38.149Z,25.8
2022-10-28T11:54:41.870Z,25.8
2022-10-28T11:55:45.041Z,25.9
2022-10-28T11:56:47.033Z,25.9
2022-10-28T11:57:50.438Z,25.8
2022-10-28T11:58:54.007Z,25.9
2022-10-28T11:59:57.194Z,25.8
2022-10-28T12:00:59.430Z,25.7
2022-10-28T12:02:03.244Z,25.7
2022-10-28T12:03:07.455Z,25.5
2022-10-28T12:04:10.279Z,25.5
2022-10-28T12:05:13.273Z,25.4
2022-10-28T12:06:15.513Z,25.3
2022-10-28T12:07:18.671Z,25.3
2022-10-28T12:08:21.742Z,25.3
2022-10-28T12:09:24.273Z,25.1
2022-10-28T12:10:27.734Z,25
2022-10-28T12:11:30.872Z,24.8
2022-10-28T12:12:33.336Z,24.8
2022-10-28T12:13:36.727Z,24.8
2022-10-28T12:14:40.087Z,24.7
2022-10-28T12:15:43.268Z,24.5
2022-10-28T12:16:46.696Z,24.6
2022-10-28T12:17:49.649Z,24.7
2022-10-28T12:18:52.641Z,24.7
2022-10-28T12:19:54.810Z,24.7
2022-10-28T12:20:58.073Z,24.7
2022-10-28T12:22:01.277Z,24.6
2022-10-28T12:23:04.280Z,24.8
2022-10-28T12:24:07.468Z,24.8
2022-10-28T12:25:11.158Z,24.7
2022-10-28T12:26:14.260Z,24.7
2022-10-28T12:27:20.099Z,24.8
2022-10-28T12:28:22.725Z,24.8
2022-10-28T12:29:25.843Z,24.8
2022-10-28T12:30:29.224Z,24.6
2022-10-28T12:31:32.762Z,24.5
2022-10-28T12:32:35.560Z,24.4
2022-10-28T12:33:38.898Z,24.2
2022-10-28T12:34:42.082Z,24
2022-10-28T12:35:44.871Z,24.1
2022-10-28T12:36:47.856Z,24.2
2022-10-28T12:37:50.835Z,24.2
2022-10-28T12:38:53.988Z,24.3
2022-10-28T12:39:57.324Z,24.3
2022-10-28T12:41:00.043Z,24.3
2022-10-28T12:42:03.662Z,24.3
2022-10-28T12:43:07.525Z,24.3
2022-10-28T12:44:10.712Z,24.3
2022-10-28T12:45:14.762Z,24.3
2022-10-28T12:46:18.471Z,24.4
2022-10-28T12:47:21.512Z,24.4
2022-10-28T12:48:24.960Z,24.4
2022-10-28T12:49:27.119Z,24.4
2022-10-28T12:50:30.184Z,24.4
2022-10-28T12:51:33.901Z,24.3
2022-10-28T12:52:36.930Z,24.4
2022-10-28T12:53:40.008Z,24.4
2022-10-28T12:54:42.606Z,24.4
2022-10-28T12:55:45.927Z,24.4
2022-10-28T12:56:49.201Z,24.4
2022-10-28T12:57:54.656Z,24.3
2022-10-28T12:59:00.299Z,24.2
2022-10-28T13:00:04.377Z,24.1
2022-10-28T13:01:08.437Z,24.1
2022-10-28T13:02:13.198Z,24.1
2022-10-28T13:03:16.801Z,24.2
2022-10-28T13:04:19.866Z,24
2022-10-28T13:05:22.952Z,24
2022-10-28T13:06:26.347Z,23.9
2022-10-28T13:07:30.429Z,23.8
2022-10-28T13:08:35.588Z,23.9
2022-10-28T13:09:41.683Z,23.9
2022-10-28T13:10:44.533Z,23.9
2022-10-28T13:11:47.338Z,23.9
2022-10-28T13:12:49.893Z,23.8
2022-10-28T13:13:53.894Z,23.7
2022-10-28T13:14:56.835Z,23.8
2022-10-28T13:15:59.761Z,23.6
2022-10-28T13:17:02.776Z,23.5
2022-10-28T13:18:06.535Z,23.5
2022-10-28T13:19:10.004Z,23.5
2022-10-28T13:20:13.350Z,23.5
2022-10-28T13:21:17.575Z,23.5
2022-10-28T13:22:22.008Z,23.5
2022-10-28T13:23:25.303Z,23.5
2022-10-28T13:24:28.923Z,23.5
2022-10-28T13:25:33.121Z,23.5
2022-10-28T13:26:37.459Z,23.5
2022-10-28T13:27:41.003Z,23.6
2022-10-28T13:28:44.449Z,23.6
2022-10-28T13:29:46.991Z,23.6
2022-10-28T13:30:49.505Z,23.5
2022-10-28T13:31:52.848Z,23.5
2022-10-28T13:32:56.164Z,23.5
2022-10-28T13:34:00.001Z,23.5
2022-10-28T13:35:03.525Z,23.6
2022-10-28T13:36:07.242Z,23.5
2022-10-28T13:37:10.647Z,23.5
2022-10-28T13:38:13.543Z,23.5
2022-10-28T13:39:16.982Z,23.5
2022-10-28T13:40:20.733Z,23.3
2022-10-28T13:41:23.540Z,23.3
2022-10-28T13:42:26.699Z,23.3
2022-10-28T13:43:29.518Z,23.3
2022-10-28T13:44:32.524Z,23.2
2022-10-28T13:45:34.967Z,23.1
2022-10-28T13:46:38.478Z,23.1
2022-10-28T13:47:41.205Z,23
2022-10-28T13:48:44.316Z,22.9
2022-10-28T13:49:48.062Z,22.8
2022-10-28T13:50:51.327Z,22.8
2022-10-28T13:51:54.046Z,22.8
2022-10-28T13:52:59.376Z,22.7
2022-10-28T13:54:02.910Z,22.6
2022-10-28T13:55:06.573Z,22.6
2022-10-28T13:56:08.884Z,22.5
2022-10-28T13:57:11.425Z,22.6
2022-10-28T13:58:14.544Z,22.6
2022-10-28T13:59:17.634Z,22.6
2022-10-28T14:00:21.093Z,22.5
2022-10-28T14:01:23.869Z,22.5
2022-10-28T14:02:43.816Z,22.5
2022-10-28T14:03:48.350Z,22.4
2022-10-28T14:04:52.203Z,22.4
2022-10-28T14:05:56.629Z,22.3
2022-10-28T14:06:59.679Z,22.3
2022-10-28T14:08:02.956Z,22.3
2022-10-28T14:09:06.234Z,22.3
2022-10-28T14:10:09.689Z,22.3
2022-10-28T14:11:14.180Z,22.2
2022-10-28T14:12:16.699Z,22.1
2022-10-28T14:13:19.444Z,22.1